sensor_id;sensor_type;location;lat;lon;timestamp;pressure;altitude;pressure_sealevel;temperature;humidity
61128;BME280;47013;42.664;23.242;2022-07-23T00:01:22;94337.47;;;20.91;51.98
61128;BME280;47013;42.664;23.242;2022-07-23T00:03:47;94346.22;;;20.89;50.39
61128;BME280;47013;42.664;23.242;2022-07-23T00:06:13;94343.16;;;20.87;50.36
61128;BME280;47013;42.664;23.242;2022-07-23T00:08:38;94339.34;;;20.85;51.00
61128;BME280;47013;42.664;23.242;2022-07-23T00:11:03;94334.72;;;20.82;50.42
61128;BME280;47013;42.664;23.242;2022-07-23T00:13:28;94338.88;;;20.77;50.65
61128;BME280;47013;42.664;23.242;2022-07-23T00:15:54;94342.25;;;20.72;49.58
61128;BME280;47013;42.664;23.242;2022-07-23T00:18:20;94347.78;;;20.72;49.22
61128;BME280;47013;42.664;23.242;2022-07-23T00:20:45;94341.50;;;20.63;49.36
61128;BME280;47013;42.664;23.242;2022-07-23T00:23:11;94347.00;;;20.63;51.42
61128;BME280;47013;42.664;23.242;2022-07-23T00:25:36;94349.28;;;20.55;53.19
61128;BME280;47013;42.664;23.242;2022-07-23T00:28:02;94350.69;;;20.50;52.93
61128;BME280;47013;42.664;23.242;2022-07-23T00:30:27;94354.19;;;20.51;52.67
61128;BME280;47013;42.664;23.242;2022-07-23T00:32:57;94345.94;;;20.42;53.01
61128;BME280;47013;42.664;23.242;2022-07-23T00:35:25;94354.03;;;20.36;53.58
61128;BME280;47013;42.664;23.242;2022-07-23T00:37:51;94348.97;;;20.35;53.23
61128;BME280;47013;42.664;23.242;2022-07-23T00:40:17;94350.31;;;20.30;53.91
61128;BME280;47013;42.664;23.242;2022-07-23T00:42:42;94347.72;;;20.26;53.81
61128;BME280;47013;42.664;23.242;2022-07-23T00:45:07;94347.59;;;20.21;54.25
61128;BME280;47013;42.664;23.242;2022-07-23T00:47:33;94355.09;;;20.20;54.59
61128;BME280;47013;42.664;23.242;2022-07-23T00:49:58;94348.50;;;20.09;54.79
61128;BME280;47013;42.664;23.242;2022-07-23T00:52:24;94349.22;;;20.00;55.16
61128;BME280;47013;42.664;23.242;2022-07-23T00:54:49;94349.34;;;19.87;56.14
61128;BME280;47013;42.664;23.242;2022-07-23T00:57:15;94344.63;;;19.88;56.54
61128;BME280;47013;42.664;23.242;2022-07-23T00:59:40;94347.38;;;19.88;56.51
61128;BME280;47013;42.664;23.242;2022-07-23T01:02:06;94347.97;;;19.83;56.16
61128;BME280;47013;42.664;23.242;2022-07-23T01:04:31;94346.44;;;19.82;56.47
61128;BME280;47013;42.664;23.242;2022-07-23T01:06:56;94350.44;;;19.81;56.14
61128;BME280;47013;42.664;23.242;2022-07-23T01:09:22;94348.56;;;19.78;56.59
61128;BME280;47013;42.664;23.242;2022-07-23T01:11:47;94342.59;;;19.70;55.73
61128;BME280;47013;42.664;23.242;2022-07-23T01:14:14;94345.50;;;19.66;55.98
61128;BME280;47013;42.664;23.242;2022-07-23T01:16:40;94341.81;;;19.69;56.66
61128;BME280;47013;42.664;23.242;2022-07-23T01:19:05;94340.41;;;19.65;56.51
61128;BME280;47013;42.664;23.242;2022-07-23T01:21:32;94335.38;;;19.63;56.18
61128;BME280;47013;42.664;23.242;2022-07-23T01:23:58;94338.88;;;19.64;55.78
61128;BME280;47013;42.664;23.242;2022-07-23T01:26:23;94343.63;;;19.63;55.88
61128;BME280;47013;42.664;23.242;2022-07-23T01:28:48;94342.25;;;19.59;55.44
61128;BME280;47013;42.664;23.242;2022-07-23T01:31:13;94337.81;;;19.61;54.94
61128;BME280;47013;42.664;23.242;2022-07-23T01:33:38;94343.31;;;19.61;54.89
61128;BME280;47013;42.664;23.242;2022-07-23T01:36:04;94338.88;;;19.64;54.92
61128;BME280;47013;42.664;23.242;2022-07-23T01:38:29;94337.66;;;19.56;55.38
61128;BME280;47013;42.664;23.242;2022-07-23T01:40:55;94345.31;;;19.61;55.25
61128;BME280;47013;42.664;23.242;2022-07-23T01:43:20;94347.13;;;19.55;54.81
61128;BME280;47013;42.664;23.242;2022-07-23T01:45:45;94331.56;;;19.61;54.93
61128;BME280;47013;42.664;23.242;2022-07-23T01:48:10;94334.84;;;19.47;55.51
61128;BME280;47013;42.664;23.242;2022-07-23T01:50:36;94342.13;;;19.31;55.50
61128;BME280;47013;42.664;23.242;2022-07-23T01:53:01;94335.34;;;19.23;56.05
61128;BME280;47013;42.664;23.242;2022-07-23T01:55:26;94340.38;;;19.15;56.34
61128;BME280;47013;42.664;23.242;2022-07-23T01:57:51;94330.25;;;19.12;55.96
61128;BME280;47013;42.664;23.242;2022-07-23T02:00:17;94336.50;;;19.13;55.82
61128;BME280;47013;42.664;23.242;2022-07-23T02:02:42;94345.53;;;19.13;56.37
61128;BME280;47013;42.664;23.242;2022-07-23T02:05:07;94339.16;;;19.17;56.06
61128;BME280;47013;42.664;23.242;2022-07-23T02:07:33;94346.63;;;19.16;55.38
61128;BME280;47013;42.664;23.242;2022-07-23T02:09:58;94342.66;;;19.17;55.56
61128;BME280;47013;42.664;23.242;2022-07-23T02:12:23;94336.25;;;19.20;55.01
61128;BME280;47013;42.664;23.242;2022-07-23T02:14:48;94337.75;;;19.12;52.69
61128;BME280;47013;42.664;23.242;2022-07-23T02:17:14;94335.84;;;19.00;52.29
61128;BME280;47013;42.664;23.242;2022-07-23T02:19:39;94339.09;;;19.07;52.40
61128;BME280;47013;42.664;23.242;2022-07-23T02:22:04;94339.16;;;19.17;53.58
61128;BME280;47013;42.664;23.242;2022-07-23T02:24:30;94328.78;;;19.21;54.15
61128;BME280;47013;42.664;23.242;2022-07-23T02:26:55;94333.97;;;19.19;53.02
61128;BME280;47013;42.664;23.242;2022-07-23T02:29:20;94339.47;;;19.19;53.73
61128;BME280;47013;42.664;23.242;2022-07-23T02:31:45;94331.66;;;19.17;53.41
61128;BME280;47013;42.664;23.242;2022-07-23T02:34:11;94334.53;;;19.13;53.92
61128;BME280;47013;42.664;23.242;2022-07-23T02:36:37;94327.06;;;19.14;53.57
61128;BME280;47013;42.664;23.242;2022-07-23T02:39:02;94335.19;;;19.18;53.25
61128;BME280;47013;42.664;23.242;2022-07-23T02:41:27;94338.38;;;19.16;52.76
61128;BME280;47013;42.664;23.242;2022-07-23T02:43:53;94337.75;;;19.12;52.66
61128;BME280;47013;42.664;23.242;2022-07-23T02:46:18;94339.09;;;19.07;52.40
61128;BME280;47013;42.664;23.242;2022-07-23T02:48:43;94345.03;;;19.06;53.22
61128;BME280;47013;42.664;23.242;2022-07-23T02:51:08;94343.78;;;18.98;53.84
61128;BME280;47013;42.664;23.242;2022-07-23T02:53:34;94343.47;;;18.96;53.28
61128;BME280;47013;42.664;23.242;2022-07-23T02:55:59;94341.34;;;19.00;53.04
61128;BME280;47013;42.664;23.242;2022-07-23T02:58:24;94335.41;;;19.01;51.50
61128;BME280;47013;42.664;23.242;2022-07-23T03:00:51;94346.56;;;19.07;51.94
61128;BME280;47013;42.664;23.242;2022-07-23T03:03:16;94356.53;;;19.13;51.92
61128;BME280;47013;42.664;23.242;2022-07-23T03:05:42;94356.25;;;19.21;52.42
61128;BME280;47013;42.664;23.242;2022-07-23T03:08:07;94356.44;;;19.26;53.57
61128;BME280;47013;42.664;23.242;2022-07-23T03:10:32;94360.28;;;19.29;54.16
61128;BME280;47013;42.664;23.242;2022-07-23T03:12:57;94360.41;;;19.25;54.60
61128;BME280;47013;42.664;23.242;2022-07-23T03:15:23;94369.56;;;19.22;54.83
61128;BME280;47013;42.664;23.242;2022-07-23T03:17:48;94374.56;;;19.14;53.92
61128;BME280;47013;42.664;23.242;2022-07-23T03:20:13;94366.72;;;19.04;56.07
61128;BME280;47013;42.664;23.242;2022-07-23T03:22:38;94375.34;;;18.93;56.03
61128;BME280;47013;42.664;23.242;2022-07-23T03:25:04;94377.91;;;18.88;56.08
61128;BME280;47013;42.664;23.242;2022-07-23T03:27:29;94380.31;;;18.85;57.04
61128;BME280;47013;42.664;23.242;2022-07-23T03:29:56;94379.69;;;18.81;57.83
61128;BME280;47013;42.664;23.242;2022-07-23T03:32:21;94377.13;;;18.87;58.76
61128;BME280;47013;42.664;23.242;2022-07-23T03:34:46;94376.25;;;18.90;58.00
61128;BME280;47013;42.664;23.242;2022-07-23T03:37:12;94382.84;;;18.93;56.71
61128;BME280;47013;42.664;23.242;2022-07-23T03:39:37;94377.34;;;18.93;57.43
61128;BME280;47013;42.664;23.242;2022-07-23T03:42:03;94385.13;;;18.94;57.86
61128;BME280;47013;42.664;23.242;2022-07-23T03:44:28;94386.97;;;18.97;58.01
61128;BME280;47013;42.664;23.242;2022-07-23T03:46:53;94382.91;;;19.02;57.79
61128;BME280;47013;42.664;23.242;2022-07-23T03:49:18;94382.31;;;19.07;57.22
61128;BME280;47013;42.664;23.242;2022-07-23T03:51:44;94389.41;;;18.95;59.14
61128;BME280;47013;42.664;23.242;2022-07-23T03:54:09;94385.25;;;18.91;58.81
61128;BME280;47013;42.664;23.242;2022-07-23T03:56:35;94389.84;;;18.94;58.54
61128;BME280;47013;42.664;23.242;2022-07-23T03:59:00;94376.25;;;18.90;58.89
61128;BME280;47013;42.664;23.242;2022-07-23T04:01:25;94382.56;;;19.00;59.34
61128;BME280;47013;42.664;23.242;2022-07-23T04:03:50;94385.56;;;18.93;58.61
61128;BME280;47013;42.664;23.242;2022-07-23T04:06:16;94384.75;;;19.05;59.71
61128;BME280;47013;42.664;23.242;2022-07-23T04:08:41;94372.25;;;19.13;59.42
61128;BME280;47013;42.664;23.242;2022-07-23T04:11:06;94379.25;;;19.05;55.54
61128;BME280;47013;42.664;23.242;2022-07-23T04:13:31;94379.28;;;19.14;55.41
61128;BME280;47013;42.664;23.242;2022-07-23T04:15:59;94382.69;;;18.96;53.21
61128;BME280;47013;42.664;23.242;2022-07-23T04:18:25;94380.91;;;19.02;53.15
61128;BME280;47013;42.664;23.242;2022-07-23T04:20:50;94378.50;;;19.13;55.42
61128;BME280;47013;42.664;23.242;2022-07-23T04:23:16;94385.59;;;19.24;55.70
61128;BME280;47013;42.664;23.242;2022-07-23T04:25:41;94390.84;;;19.31;55.73
61128;BME280;47013;42.664;23.242;2022-07-23T04:28:07;94397.47;;;19.42;56.63
61128;BME280;47013;42.664;23.242;2022-07-23T04:30:32;94396.41;;;19.49;57.25
61128;BME280;47013;42.664;23.242;2022-07-23T04:32:57;94401.34;;;19.54;57.47
61128;BME280;47013;42.664;23.242;2022-07-23T04:35:22;94405.38;;;19.62;57.19
61128;BME280;47013;42.664;23.242;2022-07-23T04:37:48;94398.84;;;19.69;55.27
61128;BME280;47013;42.664;23.242;2022-07-23T04:40:13;94396.56;;;19.77;55.81
61128;BME280;47013;42.664;23.242;2022-07-23T04:42:39;94406.94;;;19.72;54.08
61128;BME280;47013;42.664;23.242;2022-07-23T04:45:04;94406.06;;;19.85;54.61
61128;BME280;47013;42.664;23.242;2022-07-23T04:47:30;94402.91;;;19.95;55.40
61128;BME280;47013;42.664;23.242;2022-07-23T04:49:55;94404.78;;;20.08;55.37
61128;BME280;47013;42.664;23.242;2022-07-23T04:52:21;94400.94;;;20.14;55.81
61128;BME280;47013;42.664;23.242;2022-07-23T04:54:46;94408.31;;;20.26;55.77
61128;BME280;47013;42.664;23.242;2022-07-23T04:57:11;94403.41;;;20.30;55.85
61128;BME280;47013;42.664;23.242;2022-07-23T04:59:36;94408.47;;;20.41;55.28
61128;BME280;47013;42.664;23.242;2022-07-23T05:02:05;94407.44;;;20.57;54.63
61128;BME280;47013;42.664;23.242;2022-07-23T05:04:30;94405.47;;;20.67;55.76
61128;BME280;47013;42.664;23.242;2022-07-23T05:06:56;94413.16;;;20.72;54.69
61128;BME280;47013;42.664;23.242;2022-07-23T05:09:21;94401.78;;;20.79;55.63
61128;BME280;47013;42.664;23.242;2022-07-23T05:11:47;94403.47;;;20.95;54.53
61128;BME280;47013;42.664;23.242;2022-07-23T05:14:12;94404.22;;;21.04;54.75
61128;BME280;47013;42.664;23.242;2022-07-23T05:16:37;94410.81;;;21.16;53.49
61128;BME280;47013;42.664;23.242;2022-07-23T05:19:03;94406.66;;;21.20;52.90
61128;BME280;47013;42.664;23.242;2022-07-23T05:21:28;94408.78;;;21.35;52.08
61128;BME280;47013;42.664;23.242;2022-07-23T05:23:53;94419.50;;;21.42;51.83
61128;BME280;47013;42.664;23.242;2022-07-23T05:26:19;94410.44;;;21.51;50.62
61128;BME280;47013;42.664;23.242;2022-07-23T05:28:44;94410.72;;;21.62;49.76
61128;BME280;47013;42.664;23.242;2022-07-23T05:31:09;94419.88;;;21.68;48.97
61128;BME280;47013;42.664;23.242;2022-07-23T05:33:35;94416.03;;;21.74;49.09
61128;BME280;47013;42.664;23.242;2022-07-23T05:36:03;94414.16;;;21.81;48.97
61128;BME280;47013;42.664;23.242;2022-07-23T05:38:28;94419.78;;;21.95;48.98
61128;BME280;47013;42.664;23.242;2022-07-23T05:40:54;94414.53;;;22.06;49.11
61128;BME280;47013;42.664;23.242;2022-07-23T05:43:19;94416.50;;;22.15;48.80
61128;BME280;47013;42.664;23.242;2022-07-23T05:45:44;94411.50;;;22.28;48.79
61128;BME280;47013;42.664;23.242;2022-07-23T05:48:09;94410.03;;;22.42;50.25
61128;BME280;47013;42.664;23.242;2022-07-23T05:50:35;94412.56;;;22.55;49.04
61128;BME280;47013;42.664;23.242;2022-07-23T05:53:00;94424.72;;;22.72;48.80
61128;BME280;47013;42.664;23.242;2022-07-23T05:55:25;94408.38;;;22.83;48.92
61128;BME280;47013;42.664;23.242;2022-07-23T05:57:53;94406.59;;;22.95;49.02
61128;BME280;47013;42.664;23.242;2022-07-23T06:00:19;94415.00;;;23.01;48.90
61128;BME280;47013;42.664;23.242;2022-07-23T06:02:44;94414.44;;;23.11;48.81
61128;BME280;47013;42.664;23.242;2022-07-23T06:05:09;94408.16;;;23.25;49.47
61128;BME280;47013;42.664;23.242;2022-07-23T06:07:35;94402.41;;;23.29;48.32
61128;BME280;47013;42.664;23.242;2022-07-23T06:10:00;94405.03;;;23.47;48.55
61128;BME280;47013;42.664;23.242;2022-07-23T06:12:25;94403.22;;;23.59;47.86
61128;BME280;47013;42.664;23.242;2022-07-23T06:14:51;94398.81;;;23.67;47.42
61128;BME280;47013;42.664;23.242;2022-07-23T06:17:17;94404.81;;;23.80;47.63
61128;BME280;47013;42.664;23.242;2022-07-23T06:19:42;94405.41;;;23.85;47.45
61128;BME280;47013;42.664;23.242;2022-07-23T06:22:08;94403.25;;;23.94;47.09
61128;BME280;47013;42.664;23.242;2022-07-23T06:24:33;94399.22;;;24.10;46.59
61128;BME280;47013;42.664;23.242;2022-07-23T06:26:58;94396.91;;;24.23;46.98
61128;BME280;47013;42.664;23.242;2022-07-23T06:29:23;94401.06;;;24.33;45.79
61128;BME280;47013;42.664;23.242;2022-07-23T06:31:49;94405.50;;;24.46;45.75
61128;BME280;47013;42.664;23.242;2022-07-23T06:34:14;94404.41;;;24.58;46.14
61128;BME280;47013;42.664;23.242;2022-07-23T06:36:39;94400.25;;;24.68;45.20
61128;BME280;47013;42.664;23.242;2022-07-23T06:39:04;94410.03;;;24.84;44.76
61128;BME280;47013;42.664;23.242;2022-07-23T06:41:30;94414.81;;;25.04;44.08
61128;BME280;47013;42.664;23.242;2022-07-23T06:43:55;94411.59;;;25.11;43.43
61128;BME280;47013;42.664;23.242;2022-07-23T06:46:20;94410.19;;;25.21;43.53
61128;BME280;47013;42.664;23.242;2022-07-23T06:48:46;94409.81;;;25.34;44.12
61128;BME280;47013;42.664;23.242;2022-07-23T06:51:11;94403.63;;;25.44;42.30
61128;BME280;47013;42.664;23.242;2022-07-23T06:53:37;94397.41;;;25.55;41.93
61128;BME280;47013;42.664;23.242;2022-07-23T06:56:02;94403.53;;;25.65;41.89
61128;BME280;47013;42.664;23.242;2022-07-23T06:58:27;94395.59;;;25.78;41.81
61128;BME280;47013;42.664;23.242;2022-07-23T07:00:52;94400.78;;;25.96;40.91
61128;BME280;47013;42.664;23.242;2022-07-23T07:03:18;94405.59;;;25.96;40.54
61128;BME280;47013;42.664;23.242;2022-07-23T07:05:43;94402.41;;;26.08;40.52
61128;BME280;47013;42.664;23.242;2022-07-23T07:08:08;94402.69;;;26.16;40.82
61128;BME280;47013;42.664;23.242;2022-07-23T07:10:33;94406.34;;;26.33;40.02
61128;BME280;47013;42.664;23.242;2022-07-23T07:12:59;94404.44;;;26.51;39.94
61128;BME280;47013;42.664;23.242;2022-07-23T07:15:24;94395.31;;;26.44;39.11
61128;BME280;47013;42.664;23.242;2022-07-23T07:17:49;94396.09;;;26.51;39.11
61128;BME280;47013;42.664;23.242;2022-07-23T07:20:14;94396.97;;;26.73;38.68
61128;BME280;47013;42.664;23.242;2022-07-23T07:22:40;94396.25;;;26.95;38.44
61128;BME280;47013;42.664;23.242;2022-07-23T07:25:05;94384.69;;;27.02;37.98
61128;BME280;47013;42.664;23.242;2022-07-23T07:27:31;94388.50;;;27.16;37.76
61128;BME280;47013;42.664;23.242;2022-07-23T07:29:56;94390.03;;;27.17;37.27
61128;BME280;47013;42.664;23.242;2022-07-23T07:32:21;94381.22;;;27.36;37.30
61128;BME280;47013;42.664;23.242;2022-07-23T07:34:47;94380.97;;;27.45;37.62
61128;BME280;47013;42.664;23.242;2022-07-23T07:37:12;94375.41;;;27.45;37.06
61128;BME280;47013;42.664;23.242;2022-07-23T07:39:38;94373.63;;;27.47;36.64
61128;BME280;47013;42.664;23.242;2022-07-23T07:42:03;94388.84;;;27.63;37.08
61128;BME280;47013;42.664;23.242;2022-07-23T07:44:28;94379.50;;;27.77;36.34
61128;BME280;47013;42.664;23.242;2022-07-23T07:46:54;94382.28;;;27.94;35.32
61128;BME280;47013;42.664;23.242;2022-07-23T07:49:19;94383.00;;;28.11;36.44
61128;BME280;47013;42.664;23.242;2022-07-23T07:51:44;94376.38;;;28.26;36.12
61128;BME280;47013;42.664;23.242;2022-07-23T07:54:10;94378.66;;;28.38;36.63
61128;BME280;47013;42.664;23.242;2022-07-23T07:56:35;94374.09;;;28.52;37.23
61128;BME280;47013;42.664;23.242;2022-07-23T07:59:00;94367.97;;;28.59;35.24
61128;BME280;47013;42.664;23.242;2022-07-23T08:01:26;94375.53;;;28.70;34.81
61128;BME280;47013;42.664;23.242;2022-07-23T08:03:51;94374.97;;;28.83;34.11
61128;BME280;47013;42.664;23.242;2022-07-23T08:06:16;94364.81;;;28.85;35.02
61128;BME280;47013;42.664;23.242;2022-07-23T08:08:41;94370.31;;;29.02;34.21
61128;BME280;47013;42.664;23.242;2022-07-23T08:11:07;94366.69;;;29.18;34.79
61128;BME280;47013;42.664;23.242;2022-07-23T08:13:32;94370.84;;;29.47;34.15
61128;BME280;47013;42.664;23.242;2022-07-23T08:15:57;94365.13;;;29.64;34.42
61128;BME280;47013;42.664;23.242;2022-07-23T08:18:23;94364.97;;;29.81;32.98
61128;BME280;47013;42.664;23.242;2022-07-23T08:20:48;94373.19;;;30.03;33.52
61128;BME280;47013;42.664;23.242;2022-07-23T08:23:13;94359.34;;;30.16;31.65
61128;BME280;47013;42.664;23.242;2022-07-23T08:25:40;94368.22;;;30.20;32.36
61128;BME280;47013;42.664;23.242;2022-07-23T08:28:07;94363.44;;;30.15;32.33
61128;BME280;47013;42.664;23.242;2022-07-23T08:30:33;94358.16;;;30.36;32.17
61128;BME280;47013;42.664;23.242;2022-07-23T08:33:05;94360.00;;;30.52;31.40
61128;BME280;47013;42.664;23.242;2022-07-23T08:35:36;94351.91;;;30.73;31.44
61128;BME280;47013;42.664;23.242;2022-07-23T08:38:06;94361.81;;;30.93;31.47
61128;BME280;47013;42.664;23.242;2022-07-23T08:40:32;94357.75;;;31.13;31.21
61128;BME280;47013;42.664;23.242;2022-07-23T08:42:58;94356.16;;;31.36;30.40
61128;BME280;47013;42.664;23.242;2022-07-23T08:45:25;94361.00;;;31.55;30.46
61128;BME280;47013;42.664;23.242;2022-07-23T08:47:51;94352.84;;;31.70;30.08
61128;BME280;47013;42.664;23.242;2022-07-23T08:50:17;94358.88;;;31.93;29.97
61128;BME280;47013;42.664;23.242;2022-07-23T08:52:42;94355.94;;;31.85;29.41
61128;BME280;47013;42.664;23.242;2022-07-23T08:55:08;94355.72;;;31.83;30.58
61128;BME280;47013;42.664;23.242;2022-07-23T08:57:33;94355.97;;;31.98;30.30
61128;BME280;47013;42.664;23.242;2022-07-23T08:59:59;94351.56;;;32.16;29.75
61128;BME280;47013;42.664;23.242;2022-07-23T09:02:24;94353.66;;;32.29;28.89
61128;BME280;47013;42.664;23.242;2022-07-23T09:04:49;94349.25;;;32.47;28.35
61128;BME280;47013;42.664;23.242;2022-07-23T09:07:15;94344.81;;;32.51;27.09
61128;BME280;47013;42.664;23.242;2022-07-23T09:09:42;94342.47;;;32.69;26.70
61128;BME280;47013;42.664;23.242;2022-07-23T09:12:08;94337.81;;;32.84;28.35
61128;BME280;47013;42.664;23.242;2022-07-23T09:14:37;94345.91;;;32.88;28.42
61128;BME280;47013;42.664;23.242;2022-07-23T09:17:13;94341.91;;;32.97;27.84
61128;BME280;47013;42.664;23.242;2022-07-23T09:19:39;94344.97;;;33.20;26.67
61128;BME280;47013;42.664;23.242;2022-07-23T09:25:24;94339.63;;;33.42;26.32
61128;BME280;47013;42.664;23.242;2022-07-23T09:30:14;94337.19;;;33.60;26.58
61128;BME280;47013;42.664;23.242;2022-07-23T09:32:40;94339.25;;;33.80;26.32
61128;BME280;47013;42.664;23.242;2022-07-23T09:35:06;94336.38;;;33.93;23.49
61128;BME280;47013;42.664;23.242;2022-07-23T09:37:31;94339.06;;;33.99;23.21
61128;BME280;47013;42.664;23.242;2022-07-23T09:40:03;94330.63;;;33.99;23.25
61128;BME280;47013;42.664;23.242;2022-07-23T09:42:29;94330.47;;;34.05;21.86
61128;BME280;47013;42.664;23.242;2022-07-23T09:44:55;94329.09;;;34.19;22.05
61128;BME280;47013;42.664;23.242;2022-07-23T09:47:21;94331.91;;;34.47;22.23
61128;BME280;47013;42.664;23.242;2022-07-23T09:52:29;94323.00;;;34.36;20.58
61128;BME280;47013;42.664;23.242;2022-07-23T09:54:58;94319.78;;;34.52;21.38
61128;BME280;47013;42.664;23.242;2022-07-23T09:57:24;94320.00;;;34.62;20.63
61128;BME280;47013;42.664;23.242;2022-07-23T09:59:50;94315.22;;;34.78;21.14
61128;BME280;47013;42.664;23.242;2022-07-23T10:02:16;94317.38;;;34.93;20.20
61128;BME280;47013;42.664;23.242;2022-07-23T10:04:42;94317.03;;;35.04;21.01
61128;BME280;47013;42.664;23.242;2022-07-23T10:07:08;94314.28;;;35.19;21.60
61128;BME280;47013;42.664;23.242;2022-07-23T10:09:36;94311.69;;;35.36;20.31
61128;BME280;47013;42.664;23.242;2022-07-23T10:12:02;94311.72;;;35.52;21.08
61128;BME280;47013;42.664;23.242;2022-07-23T10:14:38;94311.78;;;35.82;21.51
61128;BME280;47013;42.664;23.242;2022-07-23T10:17:03;94305.22;;;36.02;19.87
61128;BME280;47013;42.664;23.242;2022-07-23T10:19:30;94303.88;;;36.26;19.22
61128;BME280;47013;42.664;23.242;2022-07-23T10:22:14;94307.81;;;36.31;18.56
61128;BME280;47013;42.664;23.242;2022-07-23T10:37:28;94288.28;;;37.04;17.86
61128;BME280;47013;42.664;23.242;2022-07-23T10:42:34;94283.88;;;37.10;15.07
61128;BME280;47013;42.664;23.242;2022-07-23T10:45:00;94281.78;;;37.18;15.82
61128;BME280;47013;42.664;23.242;2022-07-23T10:47:27;94284.78;;;37.20;15.34
61128;BME280;47013;42.664;23.242;2022-07-23T10:49:53;94272.16;;;37.29;15.23
61128;BME280;47013;42.664;23.242;2022-07-23T10:54:47;94274.75;;;37.35;14.70
61128;BME280;47013;42.664;23.242;2022-07-23T10:57:17;94276.59;;;37.40;14.96
61128;BME280;47013;42.664;23.242;2022-07-23T11:02:37;94265.53;;;37.59;14.78
61128;BME280;47013;42.664;23.242;2022-07-23T11:05:04;94262.66;;;37.67;13.99
61128;BME280;47013;42.664;23.242;2022-07-23T11:07:29;94256.13;;;37.57;14.25
61128;BME280;47013;42.664;23.242;2022-07-23T11:09:55;94257.16;;;37.69;12.67
61128;BME280;47013;42.664;23.242;2022-07-23T11:17:26;94249.16;;;37.83;12.08
61128;BME280;47013;42.664;23.242;2022-07-23T11:20:24;94246.19;;;37.73;11.08
61128;BME280;47013;42.664;23.242;2022-07-23T11:25:30;94240.03;;;37.92;12.68
61128;BME280;47013;42.664;23.242;2022-07-23T11:27:54;94233.53;;;37.99;12.67
61128;BME280;47013;42.664;23.242;2022-07-23T11:32:51;94238.75;;;38.27;13.59
61128;BME280;47013;42.664;23.242;2022-07-23T11:35:20;94237.78;;;38.32;13.63
61128;BME280;47013;42.664;23.242;2022-07-23T11:37:46;94232.44;;;38.36;12.58
61128;BME280;47013;42.664;23.242;2022-07-23T11:40:13;94233.94;;;38.38;12.65
61128;BME280;47013;42.664;23.242;2022-07-23T11:42:39;94226.78;;;38.36;12.70
61128;BME280;47013;42.664;23.242;2022-07-23T11:45:05;94227.84;;;38.41;14.03
61128;BME280;47013;42.664;23.242;2022-07-23T11:47:31;94224.09;;;38.39;12.59
61128;BME280;47013;42.664;23.242;2022-07-23T11:50:00;94225.59;;;38.40;11.07
61128;BME280;47013;42.664;23.242;2022-07-23T11:52:26;94224.59;;;38.27;11.02
61128;BME280;47013;42.664;23.242;2022-07-23T11:57:23;94216.31;;;38.04;12.11
61128;BME280;47013;42.664;23.242;2022-07-23T11:59:50;94211.47;;;38.15;12.25
61128;BME280;47013;42.664;23.242;2022-07-23T12:02:16;94208.28;;;38.35;11.99
61128;BME280;47013;42.664;23.242;2022-07-23T12:04:42;94208.69;;;38.49;13.03
61128;BME280;47013;42.664;23.242;2022-07-23T12:09:48;94203.84;;;38.59;11.34
61128;BME280;47013;42.664;23.242;2022-07-23T12:12:13;94198.03;;;38.57;11.49
61128;BME280;47013;42.664;23.242;2022-07-23T12:14:55;94199.94;;;38.72;11.67
61128;BME280;47013;42.664;23.242;2022-07-23T12:17:24;94204.00;;;38.79;11.60
61128;BME280;47013;42.664;23.242;2022-07-23T12:19:52;94194.38;;;38.91;11.74
61128;BME280;47013;42.664;23.242;2022-07-23T12:22:17;94194.72;;;38.96;11.21
61128;BME280;47013;42.664;23.242;2022-07-23T12:24:59;94200.13;;;39.01;11.23
61128;BME280;47013;42.664;23.242;2022-07-23T12:27:26;94196.63;;;39.10;12.67
61128;BME280;47013;42.664;23.242;2022-07-23T12:29:51;94193.34;;;39.14;10.71
61128;BME280;47013;42.664;23.242;2022-07-23T12:32:21;94186.63;;;39.09;10.88
61128;BME280;47013;42.664;23.242;2022-07-23T12:34:50;94184.41;;;39.17;11.36
61128;BME280;47013;42.664;23.242;2022-07-23T12:40:19;94179.13;;;38.43;11.25
61128;BME280;47013;42.664;23.242;2022-07-23T12:42:46;94171.34;;;38.08;12.28
61128;BME280;47013;42.664;23.242;2022-07-23T12:45:12;94174.38;;;38.28;11.65
61128;BME280;47013;42.664;23.242;2022-07-23T12:47:51;94171.38;;;38.26;11.88
61128;BME280;47013;42.664;23.242;2022-07-23T12:50:38;94163.03;;;38.45;12.18
61128;BME280;47013;42.664;23.242;2022-07-23T12:53:05;94159.09;;;38.58;10.80
61128;BME280;47013;42.664;23.242;2022-07-23T12:55:30;94166.09;;;38.74;11.59
61128;BME280;47013;42.664;23.242;2022-07-23T12:58:05;94169.75;;;38.84;11.90
61128;BME280;47013;42.664;23.242;2022-07-23T13:00:31;94162.88;;;38.87;10.66
61128;BME280;47013;42.664;23.242;2022-07-23T13:02:56;94166.41;;;38.78;10.76
61128;BME280;47013;42.664;23.242;2022-07-23T13:05:21;94159.59;;;38.81;11.41
61128;BME280;47013;42.664;23.242;2022-07-23T13:07:47;94161.47;;;39.06;12.46
61128;BME280;47013;42.664;23.242;2022-07-23T13:10:12;94156.84;;;39.01;12.19
61128;BME280;47013;42.664;23.242;2022-07-23T13:12:37;94157.97;;;38.88;12.24
61128;BME280;47013;42.664;23.242;2022-07-23T13:15:03;94158.13;;;38.90;12.50
61128;BME280;47013;42.664;23.242;2022-07-23T13:17:28;94161.31;;;38.77;12.13
61128;BME280;47013;42.664;23.242;2022-07-23T13:19:54;94157.91;;;38.61;11.89
61128;BME280;47013;42.664;23.242;2022-07-23T13:22:19;94158.34;;;38.75;12.01
61128;BME280;47013;42.664;23.242;2022-07-23T13:24:44;94161.47;;;38.79;12.16
61128;BME280;47013;42.664;23.242;2022-07-23T13:27:09;94156.91;;;38.83;11.94
61128;BME280;47013;42.664;23.242;2022-07-23T13:29:35;94147.78;;;38.58;11.44
61128;BME280;47013;42.664;23.242;2022-07-23T13:32:00;94153.28;;;38.56;12.25